Time;durP1;ratioP1;P1;durP2;ratioP2;P2;SDS_P1;SDS_P2;PMS_P1;PMS_P2;Temp;Humidity;BMP_temperature;BMP_pressure;BME280_temperature;BME280_humidity;BME280_pressure;Samples;Min_cycle;Max_cycle;Signal;HPM_P1;HPM_P2
2023/04/03 00:00:20;;;;;;;12.93;9.02;;;;;;;2.13;90.17;102130.47;5086865;28;20074;-79
2023/04/03 00:02:46;;;;;;;11.15;8.55;;;;;;;2.17;90.67;102126.03;5088546;28;20074;-79
2023/04/03 00:05:13;;;;;;;12.27;8.75;;;;;;;2.07;90.90;102124.72;5093334;28;20044;-81
2023/04/03 00:07:44;;;;;;;12.70;9.15;;;;;;;2.03;91.21;102144.69;5097420;28;20059;-79
2023/04/03 00:10:11;;;;;;;15.05;9.65;;;;;;;1.94;91.88;102142.47;5096815;28;20067;-80
2023/04/03 00:12:38;;;;;;;15.98;9.57;;;;;;;1.81;92.00;102118.09;5080241;28;20053;-81
2023/04/03 00:15:06;;;;;;;12.63;9.15;;;;;;;1.76;92.43;102125.19;5086493;28;20052;-81
2023/04/03 00:17:36;;;;;;;13.38;9.65;;;;;;;1.78;92.92;102121.66;5090661;28;20033;-82
2023/04/03 00:20:03;;;;;;;12.43;9.73;;;;;;;1.76;93.08;102130.34;5097171;28;20036;-80
2023/04/03 00:22:30;;;;;;;11.65;9.63;;;;;;;1.78;93.13;102144.03;5098727;28;20039;-81
2023/04/03 00:24:58;;;;;;;14.18;9.30;;;;;;;1.80;93.39;102149.97;5096864;28;20052;-79
2023/04/03 00:27:25;;;;;;;18.55;9.80;;;;;;;1.79;93.51;102138.81;5095171;28;20068;-81
2023/04/03 00:29:54;;;;;;;12.55;9.63;;;;;;;1.73;93.22;102130.47;5093298;28;20048;-78
2023/04/03 00:32:21;;;;;;;12.45;9.65;;;;;;;1.70;93.38;102141.75;5092931;28;20044;-79
2023/04/03 00:34:47;;;;;;;12.88;10.10;;;;;;;1.67;93.72;102142.72;5088789;28;20036;-81
2023/04/03 00:37:14;;;;;;;14.90;10.20;;;;;;;1.57;94.20;102136.25;5085651;28;20063;-80
2023/04/03 00:39:41;;;;;;;13.15;10.43;;;;;;;1.49;94.25;102121.97;5085236;28;20049;-80
2023/04/03 00:42:09;;;;;;;15.40;10.70;;;;;;;1.56;94.42;102139.72;5084344;28;20052;-79
2023/04/03 00:45:27;;;;;;;13.63;9.85;;;;;;;1.55;94.89;102135.47;5084140;28;20079;-81
2023/04/03 00:47:55;;;;;;;12.95;10.15;;;;;;;1.49;94.76;102124.53;4995071;28;20573;-80
2023/04/03 00:50:23;;;;;;;12.05;10.50;;;;;;;1.58;94.71;102129.34;5002435;28;20544;-80
2023/04/03 00:52:49;;;;;;;11.07;9.32;;;;;;;1.57;94.48;102132.81;5038895;28;20084;-79
2023/04/03 00:55:17;;;;;;;12.32;10.27;;;;;;;1.58;94.68;102126.75;5083328;28;20048;-78
2023/04/03 00:57:47;;;;;;;13.73;9.95;;;;;;;1.51;94.51;102126.16;5083007;28;20068;-77
2023/04/03 01:00:19;;;;;;;15.38;10.73;;;;;;;1.47;94.59;102129.75;5083087;28;20072;-80
2023/04/03 01:02:46;;;;;;;10.57;9.20;;;;;;;1.44;94.74;102132.47;5082577;28;20045;-79
2023/04/03 01:05:15;;;;;;;14.10;9.48;;;;;;;1.40;94.82;102133.50;5084515;28;20482;-80
2023/04/03 01:07:42;;;;;;;12.55;9.77;;;;;;;1.37;95.04;102136.22;5083513;28;20052;-79
2023/04/03 01:10:13;;;;;;;14.98;9.93;;;;;;;1.28;95.27;102121.09;5084279;28;20047;-79
2023/04/03 01:12:41;;;;;;;13.48;10.15;;;;;;;1.25;95.19;102124.63;5083448;28;20543;-81
2023/04/03 01:15:12;;;;;;;14.88;10.23;;;;;;;1.23;95.78;102123.00;5082446;28;20044;-81
2023/04/03 01:17:41;;;;;;;12.73;10.45;;;;;;;1.27;95.75;102116.84;5081792;28;20094;-79
2023/04/03 01:20:35;;;;;;;13.45;10.65;;;;;;;1.28;95.96;102126.25;5084012;28;20055;-81
2023/04/03 01:23:13;;;;;;;15.10;10.13;;;;;;;1.20;96.49;102128.28;5077526;28;20083;-82
2023/04/03 01:25:42;;;;;;;14.85;11.65;;;;;;;1.13;96.46;102130.25;5083706;28;20075;-83
2023/04/03 01:28:11;;;;;;;13.27;10.98;;;;;;;1.05;97.05;102132.28;5084204;28;20064;-80
2023/04/03 01:30:44;;;;;;;14.68;11.52;;;;;;;0.98;97.28;102126.50;5083971;28;20040;-82
2023/04/03 01:33:12;;;;;;;17.95;11.38;;;;;;;0.94;97.76;102131.88;5084424;28;20072;-82
2023/04/03 01:35:39;;;;;;;14.93;11.98;;;;;;;0.82;98.04;102127.19;5077299;28;20068;-80
2023/04/03 01:38:05;;;;;;;15.30;11.30;;;;;;;0.67;98.57;102115.69;5083653;28;20084;-80
2023/04/03 01:40:32;;;;;;;13.70;11.52;;;;;;;0.77;98.80;102129.91;5083117;28;20060;-82
2023/04/03 01:42:59;;;;;;;16.63;12.68;;;;;;;0.76;99.05;102132.56;5083143;28;20072;-80
2023/04/03 01:45:26;;;;;;;16.27;12.20;;;;;;;0.71;99.34;102130.13;5082858;28;20049;-78
2023/04/03 01:47:53;;;;;;;17.40;12.95;;;;;;;0.70;99.68;102136.19;5083443;28;20075;-81
2023/04/03 01:50:20;;;;;;;22.38;13.88;;;;;;;0.57;100.00;102119.50;5076205;28;20053;-79
2023/04/03 01:52:47;;;;;;;18.92;13.13;;;;;;;0.70;100.00;102130.19;5083439;28;20128;-81
2023/04/03 01:55:14;;;;;;;17.58;12.52;;;;;;;0.70;99.85;102133.63;5081264;28;20075;-77
2023/04/03 01:57:41;;;;;;;17.50;13.27;;;;;;;0.68;99.96;102132.81;5081546;28;20052;-81
2023/04/03 02:00:09;;;;;;;18.58;13.18;;;;;;;0.66;100.00;102130.31;5082720;28;20079;-79
2023/04/03 02:02:36;;;;;;;17.13;13.13;;;;;;;0.63;100.00;102127.84;5072224;28;20051;-81
2023/04/03 02:05:02;;;;;;;16.98;13.65;;;;;;;0.56;100.00;102136.69;5083045;28;20052;-80
2023/04/03 02:07:30;;;;;;;15.82;13.15;;;;;;;0.58;100.00;102141.78;5086707;28;20059;-79
2023/04/03 02:09:57;;;;;;;20.65;13.48;;;;;;;0.52;100.00;102139.41;5082250;28;20052;-80
2023/04/03 02:12:24;;;;;;;17.77;12.93;;;;;;;0.45;100.00;102135.41;5081660;28;20075;-80
2023/04/03 02:14:51;;;;;;;16.60;13.07;;;;;;;0.49;100.00;102129.22;5074184;28;20071;-80
2023/04/03 02:17:18;;;;;;;17.92;13.77;;;;;;;0.44;100.00;102132.00;5081190;28;20049;-78
2023/04/03 02:19:44;;;;;;;18.27;13.45;;;;;;;0.41;100.00;102137.25;5079583;28;20113;-79
2023/04/03 02:22:11;;;;;;;20.48;13.98;;;;;;;0.36;100.00;102141.72;5083561;28;20076;-79
2023/04/03 02:24:40;;;;;;;17.80;13.50;;;;;;;0.30;100.00;102137.63;5083897;28;20084;-79
2023/04/03 02:27:07;;;;;;;18.65;13.35;;;;;;;0.26;100.00;102145.50;5086475;28;20068;-81
2023/04/03 02:29:33;;;;;;;17.13;13.45;;;;;;;0.23;100.00;102143.88;5084632;28;20514;-79
2023/04/03 02:32:00;;;;;;;20.25;14.95;;;;;;;0.19;100.00;102136.31;5083536;28;20072;-79
2023/04/03 02:34:26;;;;;;;19.27;13.50;;;;;;;0.13;100.00;102139.94;5083021;28;20064;-81
2023/04/03 02:36:53;;;;;;;17.63;13.68;;;;;;;0.10;100.00;102147.75;5084512;28;20048;-79
2023/04/03 02:39:20;;;;;;;17.42;12.73;;;;;;;0.08;100.00;102157.25;5083168;28;20084;-81
2023/04/03 02:41:48;;;;;;;18.88;13.73;;;;;;;0.06;100.00;102155.63;5081524;28;20049;-81
2023/04/03 02:44:15;;;;;;;16.60;13.43;;;;;;;-0.01;100.00;102145.56;5080064;28;20094;-80
2023/04/03 02:46:41;;;;;;;18.15;14.35;;;;;;;-0.02;100.00;102141.31;5082578;28;20049;-79
2023/04/03 02:49:08;;;;;;;19.17;13.82;;;;;;;-0.03;100.00;102160.22;5082957;28;20084;-81
2023/04/03 02:51:34;;;;;;;17.60;14.13;;;;;;;-0.05;100.00;102161.16;5085431;28;20066;-78
2023/04/03 02:54:01;;;;;;;19.20;13.43;;;;;;;-0.07;100.00;102153.47;5088692;28;20083;-81
2023/04/03 02:56:28;;;;;;;17.20;13.57;;;;;;;-0.03;100.00;102152.50;5080079;28;20061;-82
2023/04/03 02:58:56;;;;;;;23.05;13.63;;;;;;;-0.03;100.00;102156.81;5087296;28;20064;-80
2023/04/03 03:01:23;;;;;;;19.10;13.20;;;;;;;0.04;100.00;102150.53;5082855;28;20589;-81
2023/04/03 03:03:49;;;;;;;17.13;13.10;;;;;;;0.08;100.00;102154.69;5082912;28;20049;-80
2023/04/03 03:06:18;;;;;;;16.67;12.73;;;;;;;0.04;100.00;102159.97;5083093;28;20422;-81
2023/04/03 03:08:44;;;;;;;17.90;13.13;;;;;;;-0.05;100.00;102164.56;5082397;28;20395;-81
2023/04/03 03:11:12;;;;;;;16.30;12.45;;;;;;;-0.03;100.00;102154.22;5073508;28;20404;-82
2023/04/03 03:13:38;;;;;;;17.80;12.32;;;;;;;-0.14;100.00;102157.16;5081914;28;20080;-82
2023/04/03 03:16:07;;;;;;;22.10;12.13;;;;;;;-0.13;100.00;102163.13;5082756;28;20088;-81
2023/04/03 03:18:35;;;;;;;17.58;12.48;;;;;;;-0.15;100.00;102164.91;5080482;28;20052;-80
2023/04/03 03:21:03;;;;;;;17.58;12.40;;;;;;;-0.20;100.00;102154.78;5074702;28;20044;-81
2023/04/03 03:23:32;;;;;;;15.40;12.25;;;;;;;-0.17;100.00;102151.25;5083020;28;20076;-81
2023/04/03 03:26:01;;;;;;;17.05;11.30;;;;;;;-0.20;100.00;102151.34;5083512;28;20051;-80
2023/04/03 03:28:28;;;;;;;18.05;12.38;;;;;;;-0.16;100.00;102158.94;5082964;28;20064;-81
2023/04/03 03:30:55;;;;;;;15.88;12.27;;;;;;;-0.05;100.00;102158.59;5083075;28;20094;-80
2023/04/03 03:33:23;;;;;;;15.48;12.07;;;;;;;-0.08;100.00;102156.09;5084013;28;20072;-79
2023/04/03 03:35:50;;;;;;;17.35;11.75;;;;;;;-0.08;100.00;102156.09;5083077;28;20053;-81
2023/04/03 03:38:16;;;;;;;17.98;12.35;;;;;;;-0.10;100.00;102151.00;5083793;28;20104;-80
2023/04/03 03:40:43;;;;;;;16.38;12.07;;;;;;;-0.07;100.00;102157.78;5076030;28;20077;-79
2023/04/03 03:43:10;;;;;;;17.83;12.00;;;;;;;-0.13;100.00;102153.69;5080333;28;20119;-79
2023/04/03 03:45:36;;;;;;;16.67;11.98;;;;;;;-0.14;100.00;102153.72;5075631;28;20131;-78
2023/04/03 03:48:04;;;;;;;17.23;12.23;;;;;;;-0.16;100.00;102158.09;5081277;28;20079;-80
2023/04/03 03:50:32;;;;;;;18.95;11.52;;;;;;;-0.16;100.00;102158.09;5080611;28;20084;-78
2023/04/03 03:52:59;;;;;;;16.85;11.95;;;;;;;-0.18;100.00;102157.28;5080240;28;20049;-79
2023/04/03 03:55:25;;;;;;;18.17;12.23;;;;;;;-0.13;100.00;102158.00;5073842;28;20056;-80
2023/04/03 03:57:52;;;;;;;15.07;11.65;;;;;;;-0.20;100.00;102141.06;5086309;28;20044;-80
2023/04/03 04:00:19;;;;;;;16.30;12.02;;;;;;;-0.20;100.00;102159.91;5084811;28;20491;-79
2023/04/03 04:02:46;;;;;;;19.30;12.15;;;;;;;-0.25;100.00;102154.06;5083824;28;20129;-80
2023/04/03 04:05:13;;;;;;;16.95;11.38;;;;;;;-0.15;100.00;102157.19;5085555;28;20072;-81
2023/04/03 04:07:41;;;;;;;16.00;11.80;;;;;;;-0.11;100.00;102163.94;5084099;28;20063;-80
2023/04/03 04:10:08;;;;;;;16.35;11.32;;;;;;;-0.07;100.00;102163.78;5083212;28;20091;-80
2023/04/03 04:12:36;;;;;;;20.38;12.30;;;;;;;-0.08;100.00;102161.25;5082927;28;20045;-79
2023/04/03 04:15:03;;;;;;;15.80;10.70;;;;;;;-0.07;100.00;102163.78;5082191;28;20052;-80
2023/04/03 04:17:30;;;;;;;17.70;10.95;;;;;;;-0.11;100.00;102166.50;5082453;28;20080;-79
2023/04/03 04:19:56;;;;;;;15.52;11.10;;;;;;;-0.12;100.00;102168.22;5082584;28;20052;-80
2023/04/03 04:22:23;;;;;;;17.55;10.43;;;;;;;-0.11;100.00;102163.94;5080226;28;20072;-80
2023/04/03 04:24:51;;;;;;;16.38;11.48;;;;;;;-0.13;100.00;102163.97;5082486;28;20053;-80
2023/04/03 04:27:17;;;;;;;14.80;10.57;;;;;;;-0.19;100.00;102163.34;5082064;28;20082;-79
2023/04/03 04:29:44;;;;;;;14.77;11.02;;;;;;;-0.24;100.00;102149.78;5082904;28;20132;-80
2023/04/03 04:32:11;;;;;;;13.35;10.65;;;;;;;-0.28;100.00;102164.47;5082516;28;20048;-80
2023/04/03 04:34:37;;;;;;;15.35;10.60;;;;;;;-0.30;100.00;102165.41;5084073;28;20803;-80
2023/04/03 04:37:04;;;;;;;13.57;9.98;;;;;;;-0.35;100.00;102174.09;5083728;28;20048;-81
2023/04/03 04:39:31;;;;;;;14.43;10.75;;;;;;;-0.36;100.00;102166.44;5083751;28;20076;-78
2023/04/03 04:41:59;;;;;;;17.08;11.00;;;;;;;-0.47;100.00;102179.63;5080069;28;20515;-77
2023/04/03 04:44:25;;;;;;;14.70;10.32;;;;;;;-0.51;100.00;102172.09;5079894;28;20481;-80
2023/04/03 04:46:52;;;;;;;15.00;9.52;;;;;;;-0.57;100.00;102179.97;5080031;28;20088;-80
2023/04/03 04:49:19;;;;;;;15.00;10.00;;;;;;;-0.64;100.00;102187.03;5071875;28;20086;-82
2023/04/03 04:51:45;;;;;;;13.45;9.73;;;;;;;-0.68;100.00;102190.59;5083690;28;20103;-80
2023/04/03 04:54:12;;;;;;;15.32;9.60;;;;;;;-0.71;100.00;102186.38;5084569;28;20052;-80
2023/04/03 04:56:39;;;;;;;14.30;10.18;;;;;;;-0.72;100.00;102191.56;5084452;28;20056;-80
2023/04/03 04:59:07;;;;;;;17.00;11.52;;;;;;;-0.71;100.00;102195.81;5084692;28;20056;-79
2023/04/03 05:01:33;;;;;;;15.55;10.25;;;;;;;-0.75;100.00;102192.50;5085858;28;20081;-79
2023/04/03 05:04:00;;;;;;;12.80;9.60;;;;;;;-0.81;100.00;102200.38;5084583;28;20072;-78
2023/04/03 05:06:27;;;;;;;14.85;9.88;;;;;;;-0.87;100.00;102197.13;5086258;28;20055;-80
2023/04/03 05:08:53;;;;;;;15.27;9.77;;;;;;;-0.89;100.00;102212.59;5089584;28;20048;-78
2023/04/03 05:11:23;;;;;;;12.73;9.40;;;;;;;-0.88;100.00;102205.72;5092412;28;20049;-78
2023/04/03 05:13:50;;;;;;;15.50;9.88;;;;;;;-0.77;100.00;102216.56;5090628;28;20049;-78
2023/04/03 05:16:18;;;;;;;14.38;9.73;;;;;;;-0.79;100.00;102211.47;5084424;28;20048;-77
2023/04/03 05:18:44;;;;;;;15.40;8.40;;;;;;;-0.76;100.00;102213.09;5089807;28;20087;-77
2023/04/03 05:21:11;;;;;;;12.85;9.00;;;;;;;-0.75;100.00;102218.19;5082760;28;20063;-78
2023/04/03 05:23:38;;;;;;;12.90;8.20;;;;;;;-0.68;100.00;102214.56;5088391;28;20044;-79
2023/04/03 05:26:05;;;;;;;13.70;9.38;;;;;;;-0.63;100.00;102229.00;5080588;28;20055;-78
2023/04/03 05:28:32;;;;;;;10.98;8.52;;;;;;;-0.53;100.00;102226.13;5070549;28;20109;-81
2023/04/03 05:31:00;;;;;;;13.57;8.73;;;;;;;-0.47;100.00;102225.91;5084082;28;20083;-79
2023/04/03 05:33:28;;;;;;;17.23;8.98;;;;;;;-0.44;100.00;102232.69;5089130;28;20063;-79
2023/04/03 05:35:55;;;;;;;13.82;8.50;;;;;;;-0.42;100.00;102238.63;5087463;28;20060;-80
2023/04/03 05:38:22;;;;;;;13.98;8.85;;;;;;;-0.36;100.00;102239.28;5084101;28;20056;-80
2023/04/03 05:40:49;;;;;;;13.38;8.80;;;;;;;-0.32;100.00;102227.19;5084873;28;20049;-81
2023/04/03 05:43:15;;;;;;;15.40;8.10;;;;;;;-0.27;100.00;102245.03;5084495;28;20071;-83
2023/04/03 05:45:43;;;;;;;12.63;9.23;;;;;;;-0.15;100.00;102242.09;5083510;28;20052;-82
2023/04/03 05:48:10;;;;;;;14.07;8.88;;;;;;;-0.10;100.00;102246.22;5085257;28;20059;-81
2023/04/03 05:50:41;;;;;;;12.75;7.85;;;;;;;0.01;100.00;102251.00;5086483;28;20100;-81
2023/04/03 05:53:13;;;;;;;14.95;9.00;;;;;;;-0.05;100.00;102238.34;5083489;28;20045;-80
2023/04/03 05:55:40;;;;;;;16.90;8.80;;;;;;;0.08;100.00;102247.34;5077456;28;20059;-80
2023/04/03 05:58:07;;;;;;;17.63;8.15;;;;;;;0.14;100.00;102249.72;5073622;28;20104;-79
2023/04/03 06:00:33;;;;;;;11.80;8.27;;;;;;;0.08;100.00;102239.63;5081879;28;20041;-82
2023/04/03 06:03:00;;;;;;;12.05;8.05;;;;;;;0.27;100.00;102248.44;5083104;28;20052;-80
2023/04/03 06:05:27;;;;;;;15.13;7.97;;;;;;;0.43;100.00;102250.50;5082639;28;20044;-79
2023/04/03 06:07:56;;;;;;;13.70;7.70;;;;;;;0.43;100.00;102250.50;5082116;28;20127;-78
2023/04/03 06:10:23;;;;;;;11.95;7.07;;;;;;;0.70;99.91;102253.84;5080743;28;20076;-78
2023/04/03 06:12:50;;;;;;;9.07;6.55;;;;;;;0.83;98.96;102245.66;5082793;28;20045;-78
2023/04/03 06:15:17;;;;;;;10.05;6.25;;;;;;;0.97;97.81;102251.13;5080910;28;20110;-78
2023/04/03 06:17:47;;;;;;;12.00;6.88;;;;;;;1.00;97.06;102232.97;5081090;28;20127;-79
2023/04/03 06:20:14;;;;;;;10.48;6.85;;;;;;;1.21;96.26;102246.84;5080186;28;20048;-80
2023/04/03 06:22:41;;;;;;;9.18;6.63;;;;;;;1.42;95.13;102257.25;5069222;28;20048;-81
2023/04/03 06:25:10;;;;;;;11.80;6.65;;;;;;;1.69;94.07;102255.34;5075377;28;20086;-78
2023/04/03 06:27:37;;;;;;;10.00;5.88;;;;;;;3.05;91.99;102259.13;5081852;28;20048;-80
2023/04/03 06:30:05;;;;;;;10.95;5.85;;;;;;;4.01;88.48;102259.81;5079977;28;20056;-78
2023/04/03 06:32:32;;;;;;;9.70;5.68;;;;;;;4.78;84.61;102244.69;5074966;28;20109;-77
2023/04/03 06:34:58;;;;;;;11.20;4.88;;;;;;;5.71;80.83;102244.84;5076990;28;20052;-78
2023/04/03 06:37:28;;;;;;;7.82;4.75;;;;;;;6.24;77.08;102231.44;5077719;28;20059;-78
2023/04/03 06:39:56;;;;;;;7.72;4.40;;;;;;;6.03;74.26;102217.09;5076774;28;20155;-77
2023/04/03 06:42:24;;;;;;;9.82;4.93;;;;;;;6.17;74.38;102218.88;5076605;28;20106;-75
2023/04/03 06:44:51;;;;;;;11.82;4.57;;;;;;;6.83;72.63;102211.44;5076584;28;20041;-79
2023/04/03 06:47:18;;;;;;;8.93;4.57;;;;;;;6.77;71.33;102229.19;5077233;28;20045;-78
2023/04/03 06:49:48;;;;;;;10.50;4.78;;;;;;;7.16;69.68;102207.69;5077417;28;20071;-78
2023/04/03 06:52:15;;;;;;;5.60;4.35;;;;;;;7.18;69.22;102216.25;5076468;28;20105;-78
2023/04/03 06:54:42;;;;;;;9.38;4.50;;;;;;;7.26;68.49;102209.63;5076367;28;20098;-78
2023/04/03 06:57:09;;;;;;;12.50;4.47;;;;;;;6.85;69.21;102230.41;5078168;28;20675;-79
2023/04/03 06:59:37;;;;;;;10.77;4.32;;;;;;;8.15;67.43;102224.75;5078671;28;20048;-77
2023/04/03 07:02:04;;;;;;;6.30;4.32;;;;;;;7.28;66.64;102212.13;5079689;28;20053;-83
2023/04/03 07:04:30;;;;;;;7.65;4.13;;;;;;;7.68;66.42;102212.22;5082040;28;20075;-81
2023/04/03 07:06:57;;;;;;;7.95;4.10;;;;;;;8.11;66.22;102200.63;5082165;28;20056;-79
2023/04/03 07:09:39;;;;;;;10.00;3.63;;;;;;;8.85;64.42;102199.13;5080443;28;20032;-77
2023/04/03 07:12:11;;;;;;;9.00;4.22;;;;;;;8.63;63.18;102194.53;5075843;28;20033;-80
2023/04/03 07:14:40;;;;;;;7.97;4.25;;;;;;;8.48;62.89;102203.44;5084020;28;20028;-79
2023/04/03 07:17:12;;;;;;;7.63;4.13;;;;;;;7.76;64.49;102229.03;5084832;28;20052;-80
2023/04/03 07:19:40;;;;;;;6.88;4.00;;;;;;;8.29;64.03;102222.91;5079711;28;20112;-81
2023/04/03 07:22:10;;;;;;;7.75;4.30;;;;;;;7.45;64.65;102211.94;5075003;28;20041;-85
2023/04/03 07:24:38;;;;;;;13.40;5.88;;;;;;;8.11;63.76;102205.84;5077732;28;20390;-82
2023/04/03 07:27:05;;;;;;;7.00;3.92;;;;;;;7.96;63.64;102225.13;5088014;28;20131;-82
2023/04/03 07:29:32;;;;;;;7.20;3.45;;;;;;;7.34;63.73;102216.97;5085377;28;20080;-81
2023/04/03 07:32:03;;;;;;;6.65;3.88;;;;;;;7.61;64.19;102217.81;5083835;28;20055;-82
2023/04/03 07:34:32;;;;;;;7.95;3.95;;;;;;;7.24;63.83;102223.69;5084589;28;20120;-80
2023/04/03 07:36:59;;;;;;;11.40;3.90;;;;;;;7.86;63.03;102231.88;5082863;28;20117;-84
2023/04/03 07:39:26;;;;;;;10.25;5.50;;;;;;;8.47;62.77;102220.03;5088072;28;20068;-81
2023/04/03 07:41:55;;;;;;;8.32;4.00;;;;;;;7.99;62.03;102204.91;5089577;28;20080;-82
2023/04/03 07:44:22;;;;;;;6.30;3.60;;;;;;;7.52;62.37;102205.41;5090103;28;20048;-81
2023/04/03 07:46:50;;;;;;;8.95;4.30;;;;;;;8.42;61.28;102220.34;5090680;28;20055;-81
2023/04/03 07:49:19;;;;;;;6.75;3.53;;;;;;;8.17;60.76;102231.53;5088124;28;20135;-83
2023/04/03 07:51:46;;;;;;;8.27;3.80;;;;;;;8.06;61.43;102220.97;5087385;28;20044;-82
2023/04/03 07:54:16;;;;;;;7.07;3.65;;;;;;;6.73;62.78;102217.28;5088548;28;20059;-85
2023/04/03 07:56:43;;;;;;;7.90;3.90;;;;;;;7.28;62.06;102218.19;5086473;28;20114;-84
2023/04/03 07:59:14;;;;;;;4.72;3.10;;;;;;;7.58;62.42;102246.66;5087919;28;20118;-81
2023/04/03 08:01:41;;;;;;;7.13;3.80;;;;;;;7.99;61.42;102214.50;5086674;28;20517;-83
2023/04/03 08:04:08;;;;;;;8.02;3.30;;;;;;;7.73;60.84;102225.78;5086340;28;20049;-84
2023/04/03 08:06:36;;;;;;;8.40;3.42;;;;;;;8.28;59.56;102220.38;5085711;28;20052;-83
2023/04/03 08:09:03;;;;;;;7.50;3.47;;;;;;;8.16;60.01;102222.03;5086350;28;20041;-83
2023/04/03 08:11:30;;;;;;;7.75;3.40;;;;;;;7.49;59.72;102216.00;5086003;28;20056;-82
2023/04/03 08:13:57;;;;;;;5.25;3.28;;;;;;;7.80;59.83;102229.66;5086336;28;20049;-83
2023/04/03 08:16:26;;;;;;;7.90;3.95;;;;;;;8.15;59.83;102228.19;5085394;28;20098;-82
2023/04/03 08:18:53;;;;;;;5.78;3.70;;;;;;;9.23;58.02;102219.94;5077087;28;20112;-82
2023/04/03 08:21:20;;;;;;;6.25;3.40;;;;;;;8.48;58.17;102222.53;5086716;28;20074;-82
2023/04/03 08:23:49;;;;;;;5.05;3.15;;;;;;;9.58;56.94;102231.31;5085029;28;20053;-81
2023/04/03 08:26:21;;;;;;;5.35;3.28;;;;;;;8.98;57.40;102239.91;5086309;28;20063;-80
2023/04/03 08:28:49;;;;;;;8.60;4.23;;;;;;;8.61;56.28;102212.09;5087314;28;20055;-81
2023/04/03 08:31:18;;;;;;;6.00;2.75;;;;;;;8.49;56.13;102228.59;5086590;28;20049;-85
2023/04/03 08:33:45;;;;;;;5.00;2.92;;;;;;;8.08;55.91;102231.28;5087522;28;20051;-84
2023/04/03 08:36:19;;;;;;;6.35;3.20;;;;;;;8.24;56.23;102230.19;5086925;28;20067;-82
2023/04/03 08:38:48;;;;;;;6.85;3.15;;;;;;;8.36;55.66;102232.97;5088577;28;20048;-84
2023/04/03 08:41:20;;;;;;;7.38;3.00;;;;;;;8.55;56.27;102218.53;5077078;28;20056;-82
2023/04/03 08:43:59;;;;;;;5.70;3.05;;;;;;;8.91;55.19;102230.88;5082156;28;20052;-80
2023/04/03 08:46:37;;;;;;;6.88;3.15;;;;;;;8.50;55.31;102231.09;5082183;28;20044;-82
2023/04/03 08:49:11;;;;;;;6.05;2.97;;;;;;;8.65;54.03;102224.81;5073862;28;20048;-85
2023/04/03 08:51:45;;;;;;;3.97;2.67;;;;;;;8.01;54.10;102230.88;5069818;28;20121;-81
2023/04/03 08:54:25;;;;;;;8.82;3.00;;;;;;;8.20;54.92;102226.09;5076659;28;20052;-81
2023/04/03 08:56:53;;;;;;;5.65;3.22;;;;;;;8.03;54.78;102236.84;5078819;28;20053;-82
2023/04/03 08:59:27;;;;;;;6.00;3.28;;;;;;;8.22;54.20;102224.25;5092475;28;20074;-84
2023/04/03 09:01:54;;;;;;;5.65;3.20;;;;;;;8.14;53.41;102221.28;5082934;28;20037;-84
2023/04/03 09:04:21;;;;;;;12.07;4.82;;;;;;;8.23;53.07;102233.72;5083215;28;20044;-83
2023/04/03 09:06:54;;;;;;;6.97;3.25;;;;;;;8.29;54.16;102233.31;5085656;28;20055;-83
2023/04/03 09:09:33;;;;;;;6.47;3.30;;;;;;;7.81;55.44;102236.53;5085214;28;20055;-83
2023/04/03 09:12:17;;;;;;;5.75;3.20;;;;;;;7.94;55.43;102222.63;5081301;28;20066;-85
2023/04/03 09:14:50;;;;;;;6.57;3.60;;;;;;;7.54;53.68;102211.34;5083442;28;20053;-83
2023/04/03 09:17:38;;;;;;;4.55;2.70;;;;;;;7.36;54.62;102220.31;5087655;28;20045;-84
2023/04/03 09:20:16;;;;;;;6.40;3.20;;;;;;;7.71;54.49;102236.28;5078853;28;20114;-83
2023/04/03 09:22:44;;;;;;;4.45;2.80;;;;;;;7.93;54.82;102247.03;5087016;28;20044;-82
2023/04/03 09:25:15;;;;;;;4.45;3.45;;;;;;;8.10;54.40;102247.66;5086022;28;20118;-82
2023/04/03 09:27:42;;;;;;;6.40;3.28;;;;;;;7.80;53.74;102240.09;5086431;28;20040;-86
2023/04/03 09:30:15;;;;;;;5.10;3.28;;;;;;;7.46;55.07;102246.63;5086694;28;20076;-80
2023/04/03 09:32:43;;;;;;;7.30;3.47;;;;;;;7.59;55.28;102242.28;5083562;28;20058;-81
2023/04/03 09:35:19;;;;;;;6.00;3.15;;;;;;;7.23;55.81;102250.63;5085581;28;20052;-82
2023/04/03 09:37:48;;;;;;;4.75;2.50;;;;;;;7.21;56.04;102248.13;5076469;28;20036;-80
2023/04/03 09:40:35;;;;;;;6.57;2.78;;;;;;;7.65;55.70;102242.72;5084764;28;20068;-82
2023/04/03 09:43:19;;;;;;;6.70;2.85;;;;;;;7.55;56.10;102236.47;5084480;28;20124;-79
2023/04/03 09:45:47;;;;;;;5.78;2.75;;;;;;;7.50;53.30;102224.66;5085105;28;20102;-81
2023/04/03 09:48:18;;;;;;;8.77;3.67;;;;;;;7.87;54.03;102226.56;5080703;28;20045;-83
2023/04/03 09:50:59;;;;;;;5.32;3.10;;;;;;;7.78;52.96;102231.53;5084224;28;20074;-83
2023/04/03 09:53:35;;;;;;;4.72;2.50;;;;;;;7.74;53.09;102235.25;5084670;28;20037;-83
2023/04/03 09:56:20;;;;;;;4.07;2.45;;;;;;;7.47;52.51;102215.28;5078313;28;20051;-82
2023/04/03 09:58:49;;;;;;;5.90;2.83;;;;;;;7.43;52.31;102228.56;5088578;28;20048;-83
2023/04/03 10:01:26;;;;;;;4.60;2.90;;;;;;;7.68;52.46;102233.88;5087226;28;20071;-84
2023/04/03 10:04:06;;;;;;;6.53;3.00;;;;;;;8.20;52.87;102226.09;5079254;28;20063;-84
2023/04/03 10:06:36;;;;;;;6.53;3.30;;;;;;;7.85;51.60;102211.97;5085600;28;20075;-81
2023/04/03 10:09:07;;;;;;;6.20;2.65;;;;;;;7.69;51.83;102219.94;5077820;28;20071;-83
2023/04/03 10:11:35;;;;;;;4.15;3.22;;;;;;;7.84;51.87;102215.50;5087036;28;20064;-83
2023/04/03 10:14:05;;;;;;;3.92;2.53;;;;;;;7.89;52.04;102203.00;5086154;28;20102;-82
2023/04/03 10:16:39;;;;;;;5.22;3.03;;;;;;;7.81;52.14;102220.91;5083515;28;20071;-82
2023/04/03 10:19:26;;;;;;;8.43;3.85;;;;;;;7.78;51.96;102206.31;5087014;28;20414;-84
2023/04/03 10:21:58;;;;;;;6.75;3.92;;;;;;;8.16;52.36;102226.41;5076857;28;20143;-82
2023/04/03 10:24:32;;;;;;;6.25;3.05;;;;;;;7.66;52.57;102207.94;5084426;28;20071;-81
2023/04/03 10:27:08;;;;;;;5.55;3.03;;;;;;;8.09;53.09;102207.72;5078079;28;20048;-83
2023/04/03 10:29:43;;;;;;;3.22;2.38;;;;;;;7.99;53.01;102228.38;5085909;28;20158;-85
2023/04/03 10:32:43;;;;;;;5.10;2.90;;;;;;;8.06;52.79;102205.31;5084048;28;20052;-83
2023/04/03 10:35:21;;;;;;;6.03;3.03;;;;;;;8.35;51.74;102200.00;5084160;28;20049;-85
2023/04/03 10:38:02;;;;;;;5.63;3.08;;;;;;;8.07;52.42;102213.97;5080615;28;20522;-83
2023/04/03 10:40:36;;;;;;;5.50;2.78;;;;;;;8.30;52.68;102214.13;5084650;28;20048;-83
2023/04/03 10:43:10;;;;;;;5.72;2.95;;;;;;;8.42;52.55;102203.84;5075628;28;20068;-83
2023/04/03 10:46:01;;;;;;;7.18;3.35;;;;;;;8.48;52.02;102216.50;5077644;28;20119;-82
2023/04/03 10:48:53;;;;;;;8.27;3.00;;;;;;;8.06;52.52;102220.97;5075670;28;20052;-84
2023/04/03 10:51:27;;;;;;;4.38;3.40;;;;;;;8.13;52.36;102206.59;5078692;28;20418;-81
2023/04/03 10:54:00;;;;;;;8.40;3.50;;;;;;;7.98;52.38;102190.22;5074639;28;20126;-81
2023/04/03 10:56:36;;;;;;;5.30;3.03;;;;;;;8.55;53.14;102208.13;5073625;28;20048;-78
2023/04/03 10:59:17;;;;;;;5.50;3.00;;;;;;;8.28;51.92;102200.38;5071899;28;20080;-84
2023/04/03 11:01:47;;;;;;;4.30;2.53;;;;;;;8.49;52.06;102199.91;5078880;28;20123;-81
2023/04/03 11:04:16;;;;;;;5.18;2.88;;;;;;;8.59;51.95;102187.88;5072741;28;20064;-79
2023/04/03 11:06:47;;;;;;;4.50;3.03;;;;;;;8.58;51.53;102187.03;5079121;28;20174;-80
2023/04/03 11:09:22;;;;;;;5.20;2.90;;;;;;;8.45;50.61;102180.16;5079166;28;20040;-81
2023/04/03 11:11:52;;;;;;;9.95;5.18;;;;;;;8.67;51.23;102182.97;5077535;28;20049;-82
2023/04/03 11:14:27;;;;;;;5.07;3.08;;;;;;;8.81;51.78;102182.00;5074955;28;20040;-82
2023/04/03 11:17:08;;;;;;;5.45;2.80;;;;;;;8.55;50.90;102168.13;5081224;28;20076;-80
2023/04/03 11:19:40;;;;;;;5.65;2.83;;;;;;;9.04;51.14;102147.28;5082495;28;20060;-83
2023/04/03 11:22:16;;;;;;;4.10;2.55;;;;;;;8.70;51.37;102171.47;5080431;28;20071;-82
2023/04/03 11:24:47;;;;;;;9.15;3.00;;;;;;;8.72;51.27;102166.97;5079413;28;20041;-81
2023/04/03 11:27:22;;;;;;;5.65;3.67;;;;;;;8.93;51.49;102161.09;5079236;28;20048;-81
2023/04/03 11:29:52;;;;;;;5.35;2.95;;;;;;;8.94;50.56;102160.16;5078003;28;20055;-82